This is the latest recevied weather packets stored in our database for station/object KB2FWP. If no packets are shown the sender has not sent any weather packets the latest 10 day(s).
| Time | Temp. | Humidity | Pressure | Rain* | Wind** | Luminosity | Snow |
|---|---|---|---|---|---|---|---|
| 1777859131 | 11.67° C | 61% | 1013.7 hPa | 0 mm | - | - | - |
| 1777858233 | 12.22° C | 56% | 1013.5 hPa | 0 mm | - | - | - |
| 1777857327 | 12.22° C | 50% | 1013.4 hPa | 0 mm | - | - | - |
| 1777856425 | 12.78° C | 39% | 1013.1 hPa | 0 mm | - | - | - |
| 1777855524 | 13.33° C | 37% | 1012.9 hPa | 0 mm | - | - | - |
| 1777854622 | 13.33° C | 36% | 1012.8 hPa | 0 mm | - | - | - |
| 1777853720 | 13.89° C | 35% | 1012.5 hPa | 0 mm | - | - | - |
| 1777852820 | 14.44° C | 34% | 1012.4 hPa | 0 mm | - | - | - |
| 1777851919 | 14.44° C | 33% | 1012.3 hPa | 0 mm | - | - | - |
| 1777851019 | 15° C | 32% | 1012.1 hPa | 0 mm | - | - | - |
| 1777850121 | 15.56° C | 30% | 1011.9 hPa | 0 mm | - | - | - |
| 1777849222 | 15.56° C | 30% | 1011.8 hPa | 0 mm | - | - | - |
| 1777848316 | 15.56° C | 30% | 1011.7 hPa | 0 mm | - | - | - |
| 1777847416 | 16.11° C | 30% | 1011.7 hPa | 0 mm | - | - | - |
| 1777846515 | 15.56° C | 30% | 1011.6 hPa | 0 mm | - | - | - |
| 1777845614 | 16.11° C | 30% | 1011.5 hPa | 0 mm | - | - | - |
| 1777844713 | 16.11° C | 30% | 1011.6 hPa | 0 mm | - | - | - |
| 1777843814 | 15.56° C | 31% | 1011.5 hPa | 0 mm | - | - | - |
| 1777842913 | 16.11° C | 31% | 1011.2 hPa | 0 mm | - | - | - |
| 1777842015 | 15.56° C | 33% | 1011.3 hPa | 0 mm | - | - | - |
| 1777841111 | 16.11° C | 33% | 1011.3 hPa | 0 mm | - | - | - |
| 1777840210 | 16.11° C | 32% | 1011.2 hPa | 0 mm | - | - | - |
| 1777839309 | 16.11° C | 34% | 1011.3 hPa | 0 mm | - | - | - |
| 1777838408 | 15.56° C | 34% | 1011.7 hPa | 0 mm | - | - | - |
| 1777837506 | 15.56° C | 35% | 1011.7 hPa | 0 mm | - | - | - |
* Rain latest hour (hover to see other rain measurements)
** Current wind speed in m/s (hover to see current wind gust speed)